createdAt,value
2023-03-08T00:00:02.858Z,945.5200
2023-03-08T00:00:14.038Z,945.5000
2023-03-08T00:00:25.214Z,945.5000
2023-03-08T00:00:36.269Z,945.5000
2023-03-08T00:00:47.345Z,945.5000
2023-03-08T00:00:58.379Z,945.5000
2023-03-08T00:01:09.455Z,945.4900
2023-03-08T00:01:20.496Z,945.4900
2023-03-08T00:01:31.551Z,945.5200
2023-03-08T00:01:42.669Z,945.5200
2023-03-08T00:01:53.864Z,945.5000
2023-03-08T00:02:04.940Z,945.5200
2023-03-08T00:02:16.005Z,945.4700
2023-03-08T00:02:27.144Z,945.4900
2023-03-08T00:02:38.370Z,945.5000
2023-03-08T00:02:49.598Z,945.5000
2023-03-08T00:03:00.750Z,945.5000
2023-03-08T00:03:11.791Z,945.5000
2023-03-08T00:03:22.848Z,945.5200
2023-03-08T00:03:34.079Z,945.5200
2023-03-08T00:03:45.367Z,945.5000
2023-03-08T00:03:56.531Z,945.5000
2023-03-08T00:04:07.752Z,945.5000
2023-03-08T00:04:18.996Z,945.5000
2023-03-08T00:04:30.518Z,945.5200
2023-03-08T00:04:41.635Z,945.5000
2023-03-08T00:04:52.798Z,945.5000
2023-03-08T00:05:04.088Z,945.5000
2023-03-08T00:05:15.150Z,945.4900
2023-03-08T00:05:26.349Z,945.5000
2023-03-08T00:05:37.380Z,945.5000
2023-03-08T00:05:48.430Z,945.5000
2023-03-08T00:05:59.639Z,945.5000
2023-03-08T00:06:10.825Z,945.5200
2023-03-08T00:06:22.031Z,945.5200
2023-03-08T00:06:33.226Z,945.5600
2023-03-08T00:06:44.428Z,945.5200
2023-03-08T00:06:55.619Z,945.5200
2023-03-08T00:07:06.828Z,945.5400
2023-03-08T00:07:17.873Z,945.5400
2023-03-08T00:07:28.948Z,945.5400
2023-03-08T00:07:40.022Z,945.5400
2023-03-08T00:07:51.113Z,945.5400
2023-03-08T00:08:02.183Z,945.5400
2023-03-08T00:08:13.440Z,945.5400
2023-03-08T00:08:24.475Z,945.5400
2023-03-08T00:08:35.618Z,945.5400
2023-03-08T00:08:46.679Z,945.5400
2023-03-08T00:08:57.895Z,945.5400
2023-03-08T00:09:09.066Z,945.5200
2023-03-08T00:09:20.269Z,945.5200
2023-03-08T00:09:31.339Z,945.5400
2023-03-08T00:09:42.560Z,945.5200
2023-03-08T00:09:53.628Z,945.5400
2023-03-08T00:10:04.751Z,945.5200
2023-03-08T00:10:15.950Z,945.5200
2023-03-08T00:10:27.156Z,945.5200
2023-03-08T00:10:38.192Z,945.5200
2023-03-08T00:10:49.249Z,945.5200
2023-03-08T00:11:00.435Z,945.5400
2023-03-08T00:11:11.665Z,945.5600
2023-03-08T00:11:22.820Z,945.5600
2023-03-08T00:11:34.056Z,945.5400
2023-03-08T00:11:45.101Z,945.5600
2023-03-08T00:11:56.164Z,945.5600
2023-03-08T00:12:07.312Z,945.5800
2023-03-08T00:12:18.340Z,945.6000
2023-03-08T00:12:29.398Z,945.6200
2023-03-08T00:12:40.616Z,945.6200
2023-03-08T00:12:51.685Z,945.6000
2023-03-08T00:13:02.770Z,945.6200
2023-03-08T00:13:13.865Z,945.6400
2023-03-08T00:13:25.083Z,945.6400
2023-03-08T00:13:36.269Z,945.6200
2023-03-08T00:13:47.465Z,945.6400
2023-03-08T00:13:58.512Z,945.6400
2023-03-08T00:14:09.543Z,945.6600
2023-03-08T00:14:20.641Z,945.6600
2023-03-08T00:14:31.693Z,945.6600
2023-03-08T00:14:42.830Z,945.6400
2023-03-08T00:14:54.053Z,945.6400
2023-03-08T00:15:05.102Z,945.6600
2023-03-08T00:15:16.146Z,945.6600
2023-03-08T00:15:27.311Z,945.6400
2023-03-08T00:15:38.512Z,945.6200
2023-03-08T00:15:49.739Z,945.6000
2023-03-08T00:16:00.963Z,945.6000
2023-03-08T00:16:12.138Z,945.5800
2023-03-08T00:16:23.394Z,945.5800
2023-03-08T00:16:34.481Z,945.5800
2023-03-08T00:16:45.743Z,945.5600
2023-03-08T00:16:56.910Z,945.5400
2023-03-08T00:17:08.107Z,945.5400
2023-03-08T00:17:19.156Z,945.5200
2023-03-08T00:17:30.185Z,945.5200
2023-03-08T00:17:41.384Z,945.5400
2023-03-08T00:17:52.608Z,945.5600
2023-03-08T00:18:03.779Z,945.5600
2023-03-08T00:18:14.825Z,945.5400
2023-03-08T00:18:25.878Z,945.5400
2023-03-08T00:18:36.938Z,945.5400
2023-03-08T00:18:48.020Z,945.5400
2023-03-08T00:18:59.145Z,945.5400
2023-03-08T00:19:10.345Z,945.5600
2023-03-08T00:19:21.420Z,945.5600
2023-03-08T00:19:32.454Z,945.5600
2023-03-08T00:19:43.623Z,945.5600
2023-03-08T00:19:54.824Z,945.5600
2023-03-08T00:20:06.025Z,945.5800
2023-03-08T00:20:17.223Z,945.5800
2023-03-08T00:20:28.428Z,945.5800
2023-03-08T00:20:39.481Z,945.5800
2023-03-08T00:20:50.549Z,945.5600
2023-03-08T00:21:01.728Z,945.6000
2023-03-08T00:21:12.898Z,945.5800
2023-03-08T00:21:24.105Z,945.5800
2023-03-08T00:21:35.302Z,945.6000
2023-03-08T00:21:46.516Z,945.6000
2023-03-08T00:21:57.699Z,945.5800
2023-03-08T00:22:08.899Z,945.5600
2023-03-08T00:22:19.929Z,945.5600
2023-03-08T00:22:30.979Z,945.5600
2023-03-08T00:22:42.197Z,945.6000
2023-03-08T00:22:53.434Z,945.5800
2023-03-08T00:23:04.598Z,945.5800
2023-03-08T00:23:15.635Z,945.5800
2023-03-08T00:23:26.703Z,945.5800
2023-03-08T00:23:37.756Z,945.5800
2023-03-08T00:23:48.818Z,945.5600
2023-03-08T00:23:59.869Z,945.5600
2023-03-08T00:24:10.939Z,945.5400
2023-03-08T00:24:22.032Z,945.5400
2023-03-08T00:24:33.220Z,945.5400
2023-03-08T00:24:44.278Z,945.5400
2023-03-08T00:24:55.339Z,945.5400
2023-03-08T00:25:06.510Z,945.5200
2023-03-08T00:25:17.599Z,945.5200
2023-03-08T00:25:28.675Z,945.5400
2023-03-08T00:25:39.711Z,945.5400
2023-03-08T00:25:50.750Z,945.5400
2023-03-08T00:26:01.859Z,945.5400
2023-03-08T00:26:13.085Z,945.5400
2023-03-08T00:26:24.104Z,945.5400
2023-03-08T00:26:35.147Z,945.5600
2023-03-08T00:26:46.180Z,945.5200
2023-03-08T00:26:57.234Z,945.5200
2023-03-08T00:27:08.425Z,945.5200
2023-03-08T00:27:19.485Z,945.5200
2023-03-08T00:27:30.555Z,945.5200
2023-03-08T00:27:41.883Z,945.5000
2023-03-08T00:27:52.945Z,945.5000
2023-03-08T00:28:04.146Z,945.5000
2023-03-08T00:28:15.308Z,945.5000
2023-03-08T00:28:26.514Z,945.4900
2023-03-08T00:28:37.584Z,945.4900
2023-03-08T00:28:48.966Z,945.5000
2023-03-08T00:29:00.214Z,945.5000
2023-03-08T00:29:11.422Z,945.5200
2023-03-08T00:29:22.551Z,945.5200
2023-03-08T00:29:33.714Z,945.5200
2023-03-08T00:29:44.912Z,945.5200
2023-03-08T00:29:56.117Z,945.5200
2023-03-08T00:30:07.322Z,945.5200
2023-03-08T00:30:18.527Z,945.5400
2023-03-08T00:30:29.706Z,945.5200
2023-03-08T00:30:40.759Z,945.5200
2023-03-08T00:30:51.812Z,945.5600
2023-03-08T00:31:03.016Z,945.5400
2023-03-08T00:31:14.096Z,945.5600
2023-03-08T00:31:25.326Z,945.5400
2023-03-08T00:31:36.419Z,945.5400
2023-03-08T00:31:47.577Z,945.5600
2023-03-08T00:31:58.655Z,945.5400
2023-03-08T00:32:09.776Z,945.5200
2023-03-08T00:32:21.007Z,945.5200
2023-03-08T00:32:32.077Z,945.5000
2023-03-08T00:32:43.187Z,945.5000
2023-03-08T00:32:54.218Z,945.5000
2023-03-08T00:33:05.311Z,945.5200
2023-03-08T00:33:16.425Z,945.5000
2023-03-08T00:33:27.464Z,945.5000
2023-03-08T00:33:38.520Z,945.4900
2023-03-08T00:33:49.703Z,945.4700
2023-03-08T00:34:00.908Z,945.4900
2023-03-08T00:34:11.941Z,945.4700
2023-03-08T00:34:22.992Z,945.4900
2023-03-08T00:34:34.182Z,945.4700
2023-03-08T00:34:45.417Z,945.4900
2023-03-08T00:34:56.590Z,945.4700
2023-03-08T00:35:07.789Z,945.4700
2023-03-08T00:35:19.102Z,945.4700
2023-03-08T00:35:30.208Z,945.4500
2023-03-08T00:35:41.432Z,945.4700
2023-03-08T00:35:52.552Z,945.4500
2023-03-08T00:36:03.609Z,945.4500
2023-03-08T00:36:14.691Z,945.4500
2023-03-08T00:36:25.868Z,945.4500
2023-03-08T00:36:37.070Z,945.4700
2023-03-08T00:36:48.269Z,945.4500
2023-03-08T00:36:59.468Z,945.4700
2023-03-08T00:37:10.662Z,945.4500
2023-03-08T00:37:21.870Z,945.4500
2023-03-08T00:37:33.072Z,945.4500
2023-03-08T00:37:44.270Z,945.4700
2023-03-08T00:37:55.319Z,945.4500
2023-03-08T00:38:06.383Z,945.4700
2023-03-08T00:38:17.542Z,945.4300
2023-03-08T00:38:28.590Z,945.4300
2023-03-08T00:38:39.630Z,945.4300
2023-03-08T00:38:50.835Z,945.4300
2023-03-08T00:39:02.029Z,945.4300
2023-03-08T00:39:13.223Z,945.4300
2023-03-08T00:39:24.425Z,945.4100
2023-03-08T00:39:35.629Z,945.4100
2023-03-08T00:39:46.828Z,945.3900
2023-03-08T00:39:58.035Z,945.3700
2023-03-08T00:40:09.228Z,945.3700
2023-03-08T00:40:20.283Z,945.3700
2023-03-08T00:40:31.390Z,945.3500
2023-03-08T00:40:42.513Z,945.3500
2023-03-08T00:40:53.545Z,945.3500
2023-03-08T00:41:04.594Z,945.3300
2023-03-08T00:41:15.787Z,945.3300
2023-03-08T00:41:27.010Z,945.3300
2023-03-08T00:41:38.188Z,945.3300
2023-03-08T00:41:49.401Z,945.3100
2023-03-08T00:42:00.585Z,945.3100
2023-03-08T00:42:11.793Z,945.3100
2023-03-08T00:42:22.832Z,945.2900
2023-03-08T00:42:33.912Z,945.2900
2023-03-08T00:42:44.945Z,945.2900
2023-03-08T00:42:56.277Z,945.3100
2023-03-08T00:43:07.515Z,945.2900
2023-03-08T00:43:18.665Z,945.2700
2023-03-08T00:43:29.865Z,945.2900
2023-03-08T00:43:41.083Z,945.2700
2023-03-08T00:43:52.280Z,945.2500
2023-03-08T00:44:03.484Z,945.2500
2023-03-08T00:44:14.664Z,945.2500
2023-03-08T00:44:25.721Z,945.2500
2023-03-08T00:44:36.785Z,945.2300
2023-03-08T00:44:47.826Z,945.2300
2023-03-08T00:44:58.885Z,945.2300
2023-03-08T00:45:10.031Z,945.2100
2023-03-08T00:45:21.066Z,945.2300
2023-03-08T00:45:32.126Z,945.2300
2023-03-08T00:45:43.171Z,945.2100
2023-03-08T00:45:54.184Z,945.2100
2023-03-08T00:46:05.386Z,945.2100
2023-03-08T00:46:16.705Z,945.1900
2023-03-08T00:46:27.840Z,945.2100
2023-03-08T00:46:39.055Z,945.2100
2023-03-08T00:46:50.358Z,945.1900
2023-03-08T00:47:01.426Z,945.2100
2023-03-08T00:47:12.586Z,945.1700
2023-03-08T00:47:23.792Z,945.1900
2023-03-08T00:47:34.997Z,945.1900
2023-03-08T00:47:46.197Z,945.1900
2023-03-08T00:47:57.387Z,945.1700
2023-03-08T00:48:08.626Z,945.1700
2023-03-08T00:48:19.826Z,945.1700
2023-03-08T00:48:31.003Z,945.1700
2023-03-08T00:48:42.196Z,945.1700
2023-03-08T00:48:53.765Z,945.1700
2023-03-08T00:49:04.937Z,945.1700
2023-03-08T00:49:16.105Z,945.1700
2023-03-08T00:49:27.310Z,945.1700
2023-03-08T00:49:38.511Z,945.1700
2023-03-08T00:49:49.751Z,945.1500
2023-03-08T00:50:00.908Z,945.1500
2023-03-08T00:50:11.945Z,945.1500
2023-03-08T00:50:22.985Z,945.1300
2023-03-08T00:50:34.188Z,945.1300
2023-03-08T00:50:45.391Z,945.1100
2023-03-08T00:50:56.592Z,945.1100
2023-03-08T00:51:07.805Z,945.1100
2023-03-08T00:51:18.985Z,945.1100
2023-03-08T00:51:30.192Z,945.1300
2023-03-08T00:51:41.385Z,945.1100
2023-03-08T00:51:52.594Z,945.1100
2023-03-08T00:52:03.795Z,945.1100
2023-03-08T00:52:14.827Z,945.0900
2023-03-08T00:52:25.870Z,945.0900
2023-03-08T00:52:37.076Z,945.0900
2023-03-08T00:52:48.274Z,945.0900
2023-03-08T00:52:59.475Z,945.0900
2023-03-08T00:53:10.706Z,945.0900
2023-03-08T00:53:21.881Z,945.0700
2023-03-08T00:53:33.075Z,945.0500
2023-03-08T00:53:44.282Z,945.0700
2023-03-08T00:53:55.298Z,945.0700
2023-03-08T00:54:06.364Z,945.0500
2023-03-08T00:54:17.548Z,945.0700
2023-03-08T00:54:28.752Z,945.0500
2023-03-08T00:54:39.948Z,945.0500
2023-03-08T00:54:50.976Z,945.0500
2023-03-08T00:55:02.038Z,945.0300
2023-03-08T00:55:13.233Z,945.0100
2023-03-08T00:55:24.277Z,945.0100
2023-03-08T00:55:35.327Z,945.0100
2023-03-08T00:55:46.511Z,944.9900
2023-03-08T00:55:57.709Z,944.9900
2023-03-08T00:56:08.911Z,944.9900
2023-03-08T00:56:20.111Z,945.0100
2023-03-08T00:56:31.319Z,944.9900
2023-03-08T00:56:42.519Z,944.9700
2023-03-08T00:56:53.706Z,944.9700
2023-03-08T00:57:04.911Z,944.9500
2023-03-08T00:57:16.108Z,944.9500
2023-03-08T00:57:27.202Z,944.9400
2023-03-08T00:57:38.257Z,944.9400
2023-03-08T00:57:49.386Z,944.9400
2023-03-08T00:58:00.586Z,944.9400
2023-03-08T00:58:11.844Z,944.9400
2023-03-08T00:58:23.000Z,944.9400
2023-03-08T00:58:34.069Z,944.9200
2023-03-08T00:58:45.124Z,944.9000
2023-03-08T00:58:56.180Z,944.9200
2023-03-08T00:59:07.235Z,944.9200
2023-03-08T00:59:18.346Z,944.9200
2023-03-08T00:59:29.547Z,944.9200
2023-03-08T00:59:40.592Z,944.9200
2023-03-08T00:59:51.632Z,944.9200
2023-03-08T01:00:02.749Z,944.9200
2023-03-08T01:00:13.799Z,944.9200
2023-03-08T01:00:24.925Z,944.9000
2023-03-08T01:00:36.147Z,944.9200
2023-03-08T01:00:47.238Z,944.9000
2023-03-08T01:00:58.348Z,944.9000
2023-03-08T01:01:09.463Z,944.9000
2023-03-08T01:01:20.679Z,944.8800
2023-03-08T01:01:31.799Z,944.8800
2023-03-08T01:01:43.002Z,944.9000
2023-03-08T01:01:54.037Z,944.9200
2023-03-08T01:02:05.096Z,944.9000
2023-03-08T01:02:16.272Z,944.9200
2023-03-08T01:02:27.473Z,944.9000
2023-03-08T01:02:38.674Z,944.9200
2023-03-08T01:02:49.896Z,944.9000
2023-03-08T01:03:01.072Z,944.9200
2023-03-08T01:03:12.306Z,944.9000
2023-03-08T01:03:23.479Z,944.9000
2023-03-08T01:03:34.667Z,944.9200
2023-03-08T01:03:45.882Z,944.9200
2023-03-08T01:03:56.949Z,944.9400
2023-03-08T01:04:08.037Z,944.9200
2023-03-08T01:04:19.153Z,944.9200
2023-03-08T01:04:30.357Z,944.9200
2023-03-08T01:04:41.552Z,944.9200
2023-03-08T01:04:52.614Z,944.9200
2023-03-08T01:05:03.685Z,944.9400
2023-03-08T01:05:14.846Z,944.9400
2023-03-08T01:05:26.039Z,944.9400
2023-03-08T01:05:37.226Z,944.9400
2023-03-08T01:05:48.433Z,944.9500
2023-03-08T01:05:59.635Z,944.9500
2023-03-08T01:06:10.832Z,944.9200
2023-03-08T01:06:22.032Z,944.9000
2023-03-08T01:06:33.229Z,944.9400
2023-03-08T01:06:44.432Z,944.9200
2023-03-08T01:06:55.482Z,944.9200
2023-03-08T01:07:06.544Z,944.9000
2023-03-08T01:07:17.712Z,944.8800
2023-03-08T01:07:28.911Z,944.8800
2023-03-08T01:07:40.113Z,944.8800
2023-03-08T01:07:51.148Z,944.8800
2023-03-08T01:08:02.209Z,944.8600
2023-03-08T01:08:13.417Z,944.8800
2023-03-08T01:08:24.601Z,944.8600
2023-03-08T01:08:35.805Z,944.8400
2023-03-08T01:08:46.990Z,944.8400
2023-03-08T01:08:58.184Z,944.8600
2023-03-08T01:09:09.233Z,944.8200
2023-03-08T01:09:20.265Z,944.8000
2023-03-08T01:09:31.467Z,944.8000
2023-03-08T01:09:42.526Z,944.8000
2023-03-08T01:09:53.583Z,944.7800
2023-03-08T01:10:04.746Z,944.7800
2023-03-08T01:10:15.800Z,944.7600
2023-03-08T01:10:26.849Z,944.7600
2023-03-08T01:10:38.033Z,944.7400
2023-03-08T01:10:49.230Z,944.7400
2023-03-08T01:11:00.445Z,944.7400
2023-03-08T01:11:11.663Z,944.7200
2023-03-08T01:11:22.836Z,944.7200
2023-03-08T01:11:34.026Z,944.7200
2023-03-08T01:11:45.230Z,944.7000
2023-03-08T01:11:56.428Z,944.7000
2023-03-08T01:12:07.632Z,944.7000
2023-03-08T01:12:18.666Z,944.7200
2023-03-08T01:12:29.711Z,944.7000
2023-03-08T01:12:40.913Z,944.6600
2023-03-08T01:12:52.113Z,944.6600
2023-03-08T01:13:03.313Z,944.6600
2023-03-08T01:13:14.540Z,944.6600
2023-03-08T01:13:25.705Z,944.6400
2023-03-08T01:13:36.914Z,944.6400
2023-03-08T01:13:48.107Z,944.6000
2023-03-08T01:13:59.318Z,944.6200
2023-03-08T01:14:10.505Z,944.6200
2023-03-08T01:14:21.563Z,944.6200
2023-03-08T01:14:32.637Z,944.6200
2023-03-08T01:14:43.788Z,944.6200
2023-03-08T01:14:55.006Z,944.6000
2023-03-08T01:15:06.196Z,944.6000
2023-03-08T01:15:17.385Z,944.6000
2023-03-08T01:15:28.591Z,944.6000
2023-03-08T01:15:39.787Z,944.6000
2023-03-08T01:15:50.994Z,944.6000
2023-03-08T01:16:02.204Z,944.5800
2023-03-08T01:16:13.384Z,944.5800
2023-03-08T01:16:24.453Z,944.5600
2023-03-08T01:16:35.485Z,944.5600
2023-03-08T01:16:46.665Z,944.5400
2023-03-08T01:16:57.897Z,944.5400
2023-03-08T01:17:08.946Z,944.5600
2023-03-08T01:17:20.011Z,944.5200
2023-03-08T01:17:31.069Z,944.5200
2023-03-08T01:17:42.130Z,944.5000
2023-03-08T01:17:53.225Z,944.5000
2023-03-08T01:18:04.430Z,944.5000
2023-03-08T01:18:15.648Z,944.5000
2023-03-08T01:18:26.850Z,944.4800
2023-03-08T01:18:38.026Z,944.4800
2023-03-08T01:18:49.235Z,944.4800
2023-03-08T01:19:00.436Z,944.5000
2023-03-08T01:19:11.475Z,944.4700
2023-03-08T01:19:22.507Z,944.4800
2023-03-08T01:19:33.715Z,944.4700
2023-03-08T01:19:44.904Z,944.4500
2023-03-08T01:19:56.135Z,944.4700
2023-03-08T01:20:07.195Z,944.4800
2023-03-08T01:20:18.256Z,944.4800
2023-03-08T01:20:29.386Z,944.4700
2023-03-08T01:20:40.443Z,944.4700
2023-03-08T01:20:51.465Z,944.4700
2023-03-08T01:21:02.673Z,944.4500
2023-03-08T01:21:13.876Z,944.4500
2023-03-08T01:21:25.070Z,944.4500
2023-03-08T01:21:36.267Z,944.4700
2023-03-08T01:21:47.321Z,944.4300
2023-03-08T01:21:58.385Z,944.4500
2023-03-08T01:22:09.555Z,944.4500
2023-03-08T01:22:20.746Z,944.4300
2023-03-08T01:22:31.961Z,944.4100
2023-03-08T01:22:43.145Z,944.4300
2023-03-08T01:22:54.311Z,944.4100
2023-03-08T01:23:05.562Z,944.4100
2023-03-08T01:23:16.860Z,944.4100
2023-03-08T01:23:28.018Z,944.4100
2023-03-08T01:23:40.618Z,944.3900
2023-03-08T01:23:52.626Z,944.3900
2023-03-08T01:24:03.726Z,944.4100
2023-03-08T01:24:14.779Z,944.3900
2023-03-08T01:24:25.864Z,944.3900
2023-03-08T01:24:37.092Z,944.3900
2023-03-08T01:24:48.272Z,944.3700
2023-03-08T01:24:59.315Z,944.3700
2023-03-08T01:25:10.344Z,944.3500
2023-03-08T01:25:21.557Z,944.3700
2023-03-08T01:25:32.752Z,944.3500
2023-03-08T01:25:43.957Z,944.3500
2023-03-08T01:25:55.146Z,944.3500
2023-03-08T01:26:06.343Z,944.3500
2023-03-08T01:26:17.552Z,944.3500
2023-03-08T01:26:28.762Z,944.3500
2023-03-08T01:26:39.951Z,944.3300
2023-03-08T01:26:51.161Z,944.3500
2023-03-08T01:27:02.361Z,944.3700
2023-03-08T01:27:13.400Z,944.3300
2023-03-08T01:27:24.430Z,944.3300
2023-03-08T01:27:35.635Z,944.3300
2023-03-08T01:27:46.839Z,944.3100
2023-03-08T01:27:58.056Z,944.3300
2023-03-08T01:28:09.061Z,944.3100
2023-03-08T01:28:20.144Z,944.3100
2023-03-08T01:28:31.243Z,944.3300
2023-03-08T01:28:42.315Z,944.2900
2023-03-08T01:28:53.396Z,944.3100
2023-03-08T01:29:04.596Z,944.3100
2023-03-08T01:29:15.795Z,944.2700
2023-03-08T01:29:26.992Z,944.2700
2023-03-08T01:29:38.192Z,944.2700
2023-03-08T01:29:49.223Z,944.2700
2023-03-08T01:30:00.274Z,944.2700
2023-03-08T01:30:11.331Z,944.2500
2023-03-08T01:30:22.371Z,944.2300
2023-03-08T01:30:33.546Z,944.2100
2023-03-08T01:30:44.753Z,944.2100
2023-03-08T01:30:55.826Z,944.2100
2023-03-08T01:31:06.900Z,944.1900
2023-03-08T01:31:18.032Z,944.1900
2023-03-08T01:31:29.151Z,944.1900
2023-03-08T01:31:40.232Z,944.1900
2023-03-08T01:31:51.317Z,944.1900
2023-03-08T01:32:02.507Z,944.1900
2023-03-08T01:32:13.626Z,944.1700
2023-03-08T01:32:24.680Z,944.1700
2023-03-08T01:32:35.782Z,944.1700
2023-03-08T01:32:47.007Z,944.1700
2023-03-08T01:32:58.196Z,944.1700
2023-03-08T01:33:09.234Z,944.1700
2023-03-08T01:33:20.316Z,944.1700
2023-03-08T01:33:31.464Z,944.1500
2023-03-08T01:33:42.681Z,944.1700
2023-03-08T01:33:53.875Z,944.1500
2023-03-08T01:34:05.073Z,944.1500
2023-03-08T01:34:16.265Z,944.1700
2023-03-08T01:34:27.470Z,944.1700
2023-03-08T01:34:38.694Z,944.1700
2023-03-08T01:34:49.870Z,944.1500
2023-03-08T01:35:01.101Z,944.1700
2023-03-08T01:35:12.281Z,944.1900
2023-03-08T01:35:23.471Z,944.1900
2023-03-08T01:35:34.738Z,944.1900
2023-03-08T01:35:45.837Z,944.1700
2023-03-08T01:35:57.114Z,944.1900
2023-03-08T01:36:08.361Z,944.1700
2023-03-08T01:36:19.371Z,944.1900
2023-03-08T01:36:30.468Z,944.1700
2023-03-08T01:36:41.560Z,944.2100
2023-03-08T01:36:52.618Z,944.1900
2023-03-08T01:37:03.683Z,944.1700
2023-03-08T01:37:14.824Z,944.1900
2023-03-08T01:37:25.879Z,944.2100
2023-03-08T01:37:36.938Z,944.1900
2023-03-08T01:37:48.110Z,944.2100
2023-03-08T01:37:59.309Z,944.1900
2023-03-08T01:38:10.519Z,944.1900
2023-03-08T01:38:21.585Z,944.1900
2023-03-08T01:38:32.643Z,944.1700
2023-03-08T01:38:43.783Z,944.1700
2023-03-08T01:38:54.997Z,944.1700
2023-03-08T01:39:06.035Z,944.1700
2023-03-08T01:39:17.084Z,944.1500
2023-03-08T01:39:28.273Z,944.1500
2023-03-08T01:39:39.310Z,944.1300
2023-03-08T01:39:50.356Z,944.1300
2023-03-08T01:40:01.556Z,944.1100
2023-03-08T01:40:12.751Z,944.1100
2023-03-08T01:40:23.987Z,944.1100
2023-03-08T01:40:35.143Z,944.0900
2023-03-08T01:40:46.353Z,944.1100
2023-03-08T01:40:57.583Z,944.1100
2023-03-08T01:41:08.756Z,944.0900
2023-03-08T01:41:19.950Z,944.0900
2023-03-08T01:41:31.177Z,944.0700
2023-03-08T01:41:42.349Z,944.0900
2023-03-08T01:41:53.550Z,944.0900
2023-03-08T01:42:04.750Z,944.0900
2023-03-08T01:42:15.966Z,944.0700
2023-03-08T01:42:26.989Z,944.0700
2023-03-08T01:42:38.034Z,944.0500
2023-03-08T01:42:49.084Z,944.0500
2023-03-08T01:43:00.162Z,944.0500
2023-03-08T01:43:11.308Z,944.0300
2023-03-08T01:43:22.562Z,944.0500
2023-03-08T01:43:33.585Z,944.0500
2023-03-08T01:43:44.631Z,944.0100
2023-03-08T01:43:55.667Z,944.0300
2023-03-08T01:44:06.763Z,944.0300
2023-03-08T01:44:17.865Z,944.0500
2023-03-08T01:44:29.068Z,944.0100
2023-03-08T01:44:40.264Z,944.0100
2023-03-08T01:44:51.477Z,944.0300
2023-03-08T01:45:02.661Z,944.0300
2023-03-08T01:45:13.874Z,944.0300
2023-03-08T01:45:25.069Z,944.0100
2023-03-08T01:45:36.272Z,944.0100
2023-03-08T01:45:47.468Z,944.0100
2023-03-08T01:45:58.543Z,944.0100
2023-03-08T01:46:09.593Z,944.0300
2023-03-08T01:46:20.749Z,944.0100
2023-03-08T01:46:31.800Z,944.0100
2023-03-08T01:46:42.865Z,944.0100
2023-03-08T01:46:54.035Z,944.0100
2023-03-08T01:47:05.228Z,944.0100
2023-03-08T01:47:16.428Z,944.0000
2023-03-08T01:47:27.627Z,944.0100
2023-03-08T01:47:38.821Z,944.0000
2023-03-08T01:47:49.875Z,943.9800
2023-03-08T01:48:00.902Z,944.0000
2023-03-08T01:48:11.965Z,943.9800
2023-03-08T01:48:23.021Z,943.9600
2023-03-08T01:48:34.198Z,943.9600
2023-03-08T01:48:45.237Z,943.9600
2023-03-08T01:48:56.310Z,943.9600
2023-03-08T01:49:07.347Z,943.9600
2023-03-08T01:49:18.404Z,943.9400
2023-03-08T01:49:29.554Z,943.9600
2023-03-08T01:49:40.745Z,943.9200
2023-03-08T01:49:51.942Z,943.9600
2023-03-08T01:50:03.166Z,943.9600
2023-03-08T01:50:14.344Z,943.9600
2023-03-08T01:50:25.548Z,943.9400
2023-03-08T01:50:36.755Z,943.9400
2023-03-08T01:50:47.953Z,943.9400
2023-03-08T01:50:59.143Z,943.9600
2023-03-08T01:51:10.356Z,943.9600
2023-03-08T01:51:21.397Z,943.9400
2023-03-08T01:51:32.439Z,943.9400
2023-03-08T01:51:43.674Z,943.9400
2023-03-08T01:51:54.828Z,943.9400
2023-03-08T01:52:06.032Z,943.9200
2023-03-08T01:52:17.231Z,943.9400
2023-03-08T01:52:28.276Z,943.9200
2023-03-08T01:52:39.316Z,943.9000
2023-03-08T01:52:50.508Z,943.9200
2023-03-08T01:53:01.706Z,943.9000
2023-03-08T01:53:12.922Z,943.9000
2023-03-08T01:53:24.130Z,943.8800
2023-03-08T01:53:35.301Z,943.9000
2023-03-08T01:53:46.512Z,943.8800
2023-03-08T01:53:57.707Z,943.8800
2023-03-08T01:54:08.931Z,943.8600
2023-03-08T01:54:20.103Z,943.8800
2023-03-08T01:54:31.163Z,943.8600
2023-03-08T01:54:42.209Z,943.8600
2023-03-08T01:54:53.411Z,943.8600
2023-03-08T01:55:04.582Z,943.8600
2023-03-08T01:55:15.809Z,943.8600
2023-03-08T01:55:26.988Z,943.8600
2023-03-08T01:55:38.221Z,943.8600
2023-03-08T01:55:49.382Z,943.8600
2023-03-08T01:56:00.447Z,943.8600
2023-03-08T01:56:11.492Z,943.8600
2023-03-08T01:56:22.517Z,943.8600
2023-03-08T01:56:33.562Z,943.8600
2023-03-08T01:56:44.742Z,943.8600
2023-03-08T01:56:55.797Z,943.8400
2023-03-08T01:57:06.830Z,943.8600
2023-03-08T01:57:17.890Z,943.8800
2023-03-08T01:57:28.948Z,943.8600
2023-03-08T01:57:40.118Z,943.8400
2023-03-08T01:57:51.150Z,943.8400
2023-03-08T01:58:02.197Z,943.8200
2023-03-08T01:58:13.382Z,943.8600
2023-03-08T01:58:24.622Z,943.8600
2023-03-08T01:58:35.785Z,943.8400
2023-03-08T01:58:47.036Z,943.8400
2023-03-08T01:58:58.193Z,943.8400
2023-03-08T01:59:09.404Z,943.8200
2023-03-08T01:59:20.586Z,943.8400
2023-03-08T01:59:31.790Z,943.8400
2023-03-08T01:59:42.982Z,943.8400
2023-03-08T01:59:54.020Z,943.8400
2023-03-08T02:00:05.065Z,943.8200
2023-03-08T02:00:16.263Z,943.8600
2023-03-08T02:00:27.464Z,943.8600
2023-03-08T02:00:38.585Z,943.8400
2023-03-08T02:00:49.667Z,943.8600
2023-03-08T02:01:00.763Z,943.8400
2023-03-08T02:01:11.976Z,943.8600
2023-03-08T02:01:23.215Z,943.8800
2023-03-08T02:01:34.344Z,943.8800
2023-03-08T02:01:45.381Z,943.8600
2023-03-08T02:01:56.432Z,943.8800
2023-03-08T02:02:07.498Z,943.8800
2023-03-08T02:02:18.562Z,943.8800
2023-03-08T02:02:29.706Z,943.8600
2023-03-08T02:02:40.781Z,943.8800
2023-03-08T02:02:51.833Z,943.8800
2023-03-08T02:03:02.994Z,943.8800
2023-03-08T02:03:14.188Z,943.9000
2023-03-08T02:03:25.434Z,943.9000
2023-03-08T02:03:36.597Z,943.9200
2023-03-08T02:03:47.781Z,943.9000
2023-03-08T02:03:58.987Z,943.9200
2023-03-08T02:04:10.037Z,943.9200
2023-03-08T02:04:21.072Z,943.9200
2023-03-08T02:04:32.262Z,943.9200
2023-03-08T02:04:43.460Z,943.9000
2023-03-08T02:04:54.676Z,943.9200
2023-03-08T02:05:05.904Z,943.9400
2023-03-08T02:05:17.060Z,943.9200
2023-03-08T02:05:28.164Z,943.9200
2023-03-08T02:05:39.175Z,943.9200
2023-03-08T02:05:50.362Z,943.9200
2023-03-08T02:06:01.552Z,943.9200
2023-03-08T02:06:12.748Z,943.9200
2023-03-08T02:06:23.948Z,943.9000
2023-03-08T02:06:35.153Z,943.9000
2023-03-08T02:06:46.340Z,943.9200
2023-03-08T02:06:57.560Z,943.9000
2023-03-08T02:07:08.761Z,943.9000
2023-03-08T02:07:19.945Z,943.9000
2023-03-08T02:07:30.993Z,943.9000
2023-03-08T02:07:42.076Z,943.9000
2023-03-08T02:07:53.238Z,943.8800
2023-03-08T02:08:04.446Z,943.8800
2023-03-08T02:08:15.494Z,943.8800
2023-03-08T02:08:26.577Z,943.8800
2023-03-08T02:08:37.744Z,943.8600
2023-03-08T02:08:48.912Z,943.8600
2023-03-08T02:09:00.101Z,943.8400
2023-03-08T02:09:11.318Z,943.8800
2023-03-08T02:09:22.503Z,943.8600
2023-03-08T02:09:33.721Z,943.8600
2023-03-08T02:09:44.901Z,943.8600
2023-03-08T02:09:55.941Z,943.8400
2023-03-08T02:10:06.989Z,943.8200
2023-03-08T02:10:18.221Z,943.8200
2023-03-08T02:10:29.270Z,943.8400
2023-03-08T02:10:40.330Z,943.8400
2023-03-08T02:10:51.388Z,943.8200